Blue Force One — J8Y4328 — position and weather

sailwx.info

Track history (hours):
 
Tides and Currents Weather Stations Pressure Air Temp Water Temp Dewpoint Dewpoint Depression Visibility Wind Speed Wind Dir Waves Ship Positions

Blue Force One

Last reported at 2014-Jul-28 21:33 UTC. Time now 2014-Jul-30 21:27 UTC.
Position N 41°00' W 072°18'.

Length 35 m.

Type: Pleasure craft. MMSI: 377494000.

Date/timePositionNaut miles runAvg speedWind from/ knotsBaromVisibWave heightAir tempDewpointWater temp
2014-Jul-28 21:33N 41°00' W 072°18'0 0.0
2014-Jul-28 20:33N 41°00' W 072°18'0 0.0
2014-Jul-28 19:33N 41°00' W 072°18'0 0.0
2014-Jul-28 18:33N 41°00' W 072°18'0 0.0
2014-Jul-28 17:33N 41°00' W 072°18'0 0.0
2014-Jul-28 16:33N 41°00' W 072°18'0 0.0
2014-Jul-28 15:30N 41°00' W 072°18'0 0.0
2014-Jul-28 14:33N 41°00' W 072°18'0 0.0
2014-Jul-28 13:30N 41°00' W 072°18'0 0.0
2014-Jul-28 12:30N 41°00' W 072°18'0 0.0
2014-Jul-28 11:33N 41°00' W 072°18'0 0.0
2014-Jul-28 10:33N 41°00' W 072°18'0 0.0
2014-Jul-28 09:33N 41°00' W 072°18'0 0.0
2014-Jul-28 08:30N 41°00' W 072°18'0 0.0
2014-Jul-28 07:30N 41°00' W 072°18'0 0.0
2014-Jul-28 06:33N 41°00' W 072°18'0 0.0
2014-Jul-28 05:30N 41°00' W 072°18'0 0.0
2014-Jul-28 04:30N 41°00' W 072°18'0 0.0
2014-Jul-28 03:33N 41°00' W 072°18'0 0.0
2014-Jul-28 02:33N 41°00' W 072°18'0 0.0
2014-Jul-28 01:30N 41°00' W 072°18'0 0.0
2014-Jul-28 00:30N 41°00' W 072°18'0 0.0
2014-Jul-27 23:33N 41°00' W 072°18'0 0.0
2014-Jul-27 22:33N 41°00' W 072°18'5 5.1
2014-Jul-27 21:33N 41°03' W 072°24'0 0.0
2014-Jul-27 20:27N 41°03' W 072°24'0 0.0
2014-Jul-27 19:34N 41°03' W 072°24'0 0.0
2014-Jul-27 18:33N 41°03' W 072°24'0 0.0
2014-Jul-27 17:33N 41°03' W 072°24'1 1.4
2014-Jul-27 16:34N 41°04' W 072°23'2 1.5
2014-Jul-27 15:28N 41°05' W 072°21'0 0.0
2014-Jul-27 14:33N 41°05' W 072°21'5 4.8
2014-Jul-27 13:33N 41°02' W 072°16'3 2.5
2014-Jul-27 12:29N 41°00' W 072°18'0 0.0
2014-Jul-27 11:32N 41°00' W 072°18'0 0.0
2014-Jul-27 10:32N 41°00' W 072°18'0 0.0
2014-Jul-27 09:32N 41°00' W 072°18'0 0.0
2014-Jul-27 08:32N 41°00' W 072°18'0 0.0
2014-Jul-27 07:32N 41°00' W 072°18'0 0.0
2014-Jul-27 06:32N 41°00' W 072°18'0 0.0
2014-Jul-27 05:32N 41°00' W 072°18'0 0.0
2014-Jul-27 04:32N 41°00' W 072°18'0 0.0
2014-Jul-27 03:32N 41°00' W 072°18'0 0.0
2014-Jul-27 02:32N 41°00' W 072°18'0 0.0
2014-Jul-27 01:32N 41°00' W 072°18'0 0.0
2014-Jul-27 00:32N 41°00' W 072°18'0 0.0
2014-Jul-26 23:32N 41°00' W 072°18'0 0.0
2014-Jul-26 22:33N 41°00' W 072°18'0 0.0
2014-Jul-26 21:29N 41°00' W 072°18'0 0.0
2014-Jul-26 20:32N 41°00' W 072°18'0 0.0
2014-Jul-26 19:32N 41°00' W 072°18'0 0.0
2014-Jul-26 18:32N 41°00' W 072°18'3 3.2
2014-Jul-26 17:30N 41°01' W 072°22'0 0.0
2014-Jul-26 16:33N 41°01' W 072°22'3 3.4
2014-Jul-26 15:33N 41°01' W 072°18'0 0.0
2014-Jul-26 14:33N 41°01' W 072°18'0 0.0
2014-Jul-26 13:33N 41°01' W 072°18'0 0.0
2014-Jul-26 12:33N 41°01' W 072°18'1 0.5
2014-Jul-26 11:27N 41°00' W 072°18'0 0.0
2014-Jul-26 10:33N 41°00' W 072°18'0 0.0
2014-Jul-26 09:30N 41°00' W 072°18'0 0.0
2014-Jul-26 08:33N 41°00' W 072°18'0 0.0
2014-Jul-26 07:33N 41°00' W 072°18'0 0.0
2014-Jul-26 06:27N 41°00' W 072°18'0 0.0
2014-Jul-26 05:33N 41°00' W 072°18'0 0.0
2014-Jul-26 04:33N 41°00' W 072°18'0 0.0
2014-Jul-26 03:33N 41°00' W 072°18'0 0.0
2014-Jul-26 02:33N 41°00' W 072°18'0 0.0
2014-Jul-26 01:33N 41°00' W 072°18'0 0.0
2014-Jul-26 00:33N 41°00' W 072°18'0 0.0
2014-Jul-25 23:33N 41°00' W 072°18'0 0.1
2014-Jul-25 22:33N 41°00' W 072°18'3 2.7
2014-Jul-25 21:29N 41°03' W 072°19'0 0.0
2014-Jul-25 20:32N 41°03' W 072°19'0 0.0
2014-Jul-25 19:32N 41°03' W 072°19'0 0.0
2014-Jul-25 18:23N 41°03' W 072°19'0 0.0
2014-Jul-25 17:32N 41°03' W 072°19'3 3.0
2014-Jul-25 16:32N 41°00' W 072°18'0 0.0
2014-Jul-25 15:32N 41°00' W 072°18'0 0.0
2014-Jul-25 14:29N 41°00' W 072°18'0 0.0
2014-Jul-25 13:32N 41°00' W 072°18'0 0.0
2014-Jul-25 12:32N 41°00' W 072°18'0 0.0
2014-Jul-25 11:32N 41°00' W 072°18'0 0.0
2014-Jul-25 10:32N 41°00' W 072°18'0 0.0
2014-Jul-25 09:32N 41°00' W 072°18'0 0.0
2014-Jul-25 08:32N 41°00' W 072°18'0 0.0
2014-Jul-25 07:29N 41°00' W 072°18'0 0.0
2014-Jul-25 06:32N 41°00' W 072°18'0 0.0
2014-Jul-25 05:33N 41°00' W 072°18'0 0.0
2014-Jul-25 04:29N 41°00' W 072°18'0 0.0
2014-Jul-25 03:32N 41°00' W 072°18'0 0.0
2014-Jul-25 02:32N 41°00' W 072°18'0 0.0
2014-Jul-25 01:32N 41°00' W 072°18'0 0.0
2014-Jul-25 00:29N 41°00' W 072°18'0 0.0
2014-Jul-24 23:32N 41°00' W 072°18'0 0.0
2014-Jul-24 22:32N 41°00' W 072°18'0 0.0
2014-Jul-24 21:32N 41°00' W 072°18'0 0.0
2014-Jul-24 20:32N 41°00' W 072°18'0 0.0
2014-Jul-24 19:32N 41°00' W 072°18'0 0.0
2014-Jul-24 18:32N 41°00' W 072°18'0 0.0
2014-Jul-24 17:32N 41°00' W 072°18'0 0.0
2014-Jul-24 16:32N 41°00' W 072°18'0 0.0
2014-Jul-24 15:32N 41°00' W 072°18'0 0.0
2014-Jul-24 14:32N 41°00' W 072°18'0 0.0
2014-Jul-24 13:32N 41°00' W 072°18'0 0.0
2014-Jul-24 12:32N 41°00' W 072°18'0 0.0
2014-Jul-24 11:29N 41°00' W 072°18'0 0.0
2014-Jul-24 10:32N 41°00' W 072°18'0 0.0
2014-Jul-24 09:26N 41°00' W 072°18'0 0.0
2014-Jul-24 08:32N 41°00' W 072°18'0 0.0
2014-Jul-24 07:23N 41°00' W 072°18'0 0.0
2014-Jul-24 06:32N 41°00' W 072°18'0 0.0
2014-Jul-24 05:32N 41°00' W 072°18'0 0.0
2014-Jul-24 04:32N 41°00' W 072°18'0 0.0
2014-Jul-24 03:32N 41°00' W 072°18'0 0.0
2014-Jul-24 02:32N 41°00' W 072°18'0 0.0
2014-Jul-24 01:32N 41°00' W 072°18'0 0.0
2014-Jul-24 00:32N 41°00' W 072°18'0 0.0
2014-Jul-23 23:32N 41°00' W 072°18'0 0.0
2014-Jul-23 22:26N 41°00' W 072°18'0 0.0
2014-Jul-23 21:29N 41°00' W 072°18'0 0.0
2014-Jul-23 20:29N 41°00' W 072°18'0 0.0
2014-Jul-23 19:29N 41°00' W 072°18'0 0.0
2014-Jul-23 18:32N 41°00' W 072°18'0 0.0
2014-Jul-23 17:32N 41°00' W 072°18'0 0.0
2014-Jul-23 16:32N 41°00' W 072°18'0 0.0
2014-Jul-23 15:29N 41°00' W 072°18'0 0.0
2014-Jul-23 14:32N 41°00' W 072°18'0 0.0
2014-Jul-23 13:32N 41°00' W 072°18'0 0.0
2014-Jul-23 12:32N 41°00' W 072°18'0 0.0
2014-Jul-23 11:29N 41°00' W 072°18'0 0.0
2014-Jul-23 10:32N 41°00' W 072°18'0 0.0
2014-Jul-23 09:32N 41°00' W 072°18'0 0.0
2014-Jul-23 08:32N 41°00' W 072°18'0 0.0
2014-Jul-23 07:29N 41°00' W 072°18'0 0.0
2014-Jul-23 06:32N 41°00' W 072°18'0 0.0
2014-Jul-23 05:32N 41°00' W 072°18'0 0.0
2014-Jul-23 04:32N 41°00' W 072°18'0 0.0
2014-Jul-23 03:29N 41°00' W 072°18'0 0.0
2014-Jul-23 02:32N 41°00' W 072°18'0 0.0
2014-Jul-23 01:32N 41°00' W 072°18'0 0.0
2014-Jul-23 00:32N 41°00' W 072°18'0 0.0
2014-Jul-22 23:32N 41°00' W 072°18'0 0.0
2014-Jul-22 22:29N 41°00' W 072°18'0 0.0
2014-Jul-22 21:32N 41°00' W 072°18'3 2.7
2014-Jul-22 20:33N 41°02' W 072°20'2 2.0
2014-Jul-22 19:33N 41°01' W 072°22'0 0.0
2014-Jul-22 18:33N 41°01' W 072°22'0 0.0
2014-Jul-22 17:30N 41°01' W 072°22'0 0.0
2014-Jul-22 16:31N 41°01' W 072°22'3 2.9
2014-Jul-22 15:25N 41°00' W 072°18'0 0.0
2014-Jul-22 14:31N 41°00' W 072°18'0 0.0
2014-Jul-22 13:31N 41°00' W 072°18'0 0.0
2014-Jul-22 12:31N 41°00' W 072°18'0 0.0
2014-Jul-22 11:31N 41°00' W 072°18'0 0.0
2014-Jul-22 10:31N 41°00' W 072°18'0 0.0
2014-Jul-22 09:31N 41°00' W 072°18'0 0.0
2014-Jul-22 08:31N 41°00' W 072°18'0 0.0
2014-Jul-22 07:31N 41°00' W 072°18'0 0.0
2014-Jul-22 06:31N 41°00' W 072°18'0 0.0
2014-Jul-22 05:31N 41°00' W 072°18'0 0.0
2014-Jul-22 04:31N 41°00' W 072°18'0 0.0
2014-Jul-22 03:31N 41°00' W 072°18'0 0.0
2014-Jul-22 02:31N 41°00' W 072°18'0 0.0
2014-Jul-22 01:28N 41°00' W 072°18'0 0.0
2014-Jul-22 00:31N 41°00' W 072°18'0 0.0
2014-Jul-21 23:31N 41°00' W 072°18'0 0.0
2014-Jul-21 22:28N 41°00' W 072°18'0 0.0
2014-Jul-21 21:31N 41°00' W 072°18'0 0.0
2014-Jul-21 20:31N 41°00' W 072°18'0 0.0
2014-Jul-21 20:13N 41°00' W 072°18'3 4.5
2014-Jul-21 19:33N 41°03' W 072°19'0 0.0
2014-Jul-21 18:23N 41°03' W 072°19'0 0.0
2014-Jul-21 17:29N 41°03' W 072°19'0 0.0
2014-Jul-21 16:23N 41°03' W 072°19'3 3.6
2014-Jul-21 15:33N 41°00' W 072°18'0 0.0
2014-Jul-21 14:33N 41°00' W 072°18'  
Track history (hours):
 
Tides and Currents Weather Stations Pressure Air Temp Water Temp Dewpoint Dewpoint Depression Visibility Wind Speed Wind Dir Waves Ship Positions

Blue Force One

Last reported at 2014-Jul-28 21:33 UTC. Time now 2014-Jul-30 21:27 UTC.
Position N 41°00' W 072°18'.

Length 35 m.

Type: Pleasure craft. MMSI: 377494000.

Date/timePositionNaut miles runAvg speedWind from/ knotsBaromVisibWave heightAir tempDewpointWater temp
2014-Jul-28 21:33N 41°00' W 072°18'0 0.0
2014-Jul-28 20:33N 41°00' W 072°18'0 0.0
2014-Jul-28 19:33N 41°00' W 072°18'0 0.0
2014-Jul-28 18:33N 41°00' W 072°18'0 0.0
2014-Jul-28 17:33N 41°00' W 072°18'0 0.0
2014-Jul-28 16:33N 41°00' W 072°18'0 0.0
2014-Jul-28 15:30N 41°00' W 072°18'0 0.0
2014-Jul-28 14:33N 41°00' W 072°18'0 0.0
2014-Jul-28 13:30N 41°00' W 072°18'0 0.0
2014-Jul-28 12:30N 41°00' W 072°18'0 0.0
2014-Jul-28 11:33N 41°00' W 072°18'0 0.0
2014-Jul-28 10:33N 41°00' W 072°18'0 0.0
2014-Jul-28 09:33N 41°00' W 072°18'0 0.0
2014-Jul-28 08:30N 41°00' W 072°18'0 0.0
2014-Jul-28 07:30N 41°00' W 072°18'0 0.0
2014-Jul-28 06:33N 41°00' W 072°18'0 0.0
2014-Jul-28 05:30N 41°00' W 072°18'0 0.0
2014-Jul-28 04:30N 41°00' W 072°18'0 0.0
2014-Jul-28 03:33N 41°00' W 072°18'0 0.0
2014-Jul-28 02:33N 41°00' W 072°18'0 0.0
2014-Jul-28 01:30N 41°00' W 072°18'0 0.0
2014-Jul-28 00:30N 41°00' W 072°18'0 0.0
2014-Jul-27 23:33N 41°00' W 072°18'0 0.0
2014-Jul-27 22:33N 41°00' W 072°18'5 5.1
2014-Jul-27 21:33N 41°03' W 072°24'0 0.0
2014-Jul-27 20:27N 41°03' W 072°24'0 0.0
2014-Jul-27 19:34N 41°03' W 072°24'0 0.0
2014-Jul-27 18:33N 41°03' W 072°24'0 0.0
2014-Jul-27 17:33N 41°03' W 072°24'1 1.4
2014-Jul-27 16:34N 41°04' W 072°23'2 1.5
2014-Jul-27 15:28N 41°05' W 072°21'0 0.0
2014-Jul-27 14:33N 41°05' W 072°21'5 4.8
2014-Jul-27 13:33N 41°02' W 072°16'3 2.5
2014-Jul-27 12:29N 41°00' W 072°18'0 0.0
2014-Jul-27 11:32N 41°00' W 072°18'0 0.0
2014-Jul-27 10:32N 41°00' W 072°18'0 0.0
2014-Jul-27 09:32N 41°00' W 072°18'0 0.0
2014-Jul-27 08:32N 41°00' W 072°18'0 0.0
2014-Jul-27 07:32N 41°00' W 072°18'0 0.0
2014-Jul-27 06:32N 41°00' W 072°18'0 0.0
2014-Jul-27 05:32N 41°00' W 072°18'0 0.0
2014-Jul-27 04:32N 41°00' W 072°18'0 0.0
2014-Jul-27 03:32N 41°00' W 072°18'0 0.0
2014-Jul-27 02:32N 41°00' W 072°18'0 0.0
2014-Jul-27 01:32N 41°00' W 072°18'0 0.0
2014-Jul-27 00:32N 41°00' W 072°18'0 0.0
2014-Jul-26 23:32N 41°00' W 072°18'0 0.0
2014-Jul-26 22:33N 41°00' W 072°18'0 0.0
2014-Jul-26 21:29N 41°00' W 072°18'0 0.0
2014-Jul-26 20:32N 41°00' W 072°18'0 0.0
2014-Jul-26 19:32N 41°00' W 072°18'0 0.0
2014-Jul-26 18:32N 41°00' W 072°18'3 3.2
2014-Jul-26 17:30N 41°01' W 072°22'0 0.0
2014-Jul-26 16:33N 41°01' W 072°22'3 3.4
2014-Jul-26 15:33N 41°01' W 072°18'0 0.0
2014-Jul-26 14:33N 41°01' W 072°18'0 0.0
2014-Jul-26 13:33N 41°01' W 072°18'0 0.0
2014-Jul-26 12:33N 41°01' W 072°18'1 0.5
2014-Jul-26 11:27N 41°00' W 072°18'0 0.0
2014-Jul-26 10:33N 41°00' W 072°18'0 0.0
2014-Jul-26 09:30N 41°00' W 072°18'0 0.0
2014-Jul-26 08:33N 41°00' W 072°18'0 0.0
2014-Jul-26 07:33N 41°00' W 072°18'0 0.0
2014-Jul-26 06:27N 41°00' W 072°18'0 0.0
2014-Jul-26 05:33N 41°00' W 072°18'0 0.0
2014-Jul-26 04:33N 41°00' W 072°18'0 0.0
2014-Jul-26 03:33N 41°00' W 072°18'0 0.0
2014-Jul-26 02:33N 41°00' W 072°18'0 0.0
2014-Jul-26 01:33N 41°00' W 072°18'0 0.0
2014-Jul-26 00:33N 41°00' W 072°18'0 0.0
2014-Jul-25 23:33N 41°00' W 072°18'0 0.1
2014-Jul-25 22:33N 41°00' W 072°18'3 2.7
2014-Jul-25 21:29N 41°03' W 072°19'0 0.0
2014-Jul-25 20:32N 41°03' W 072°19'0 0.0
2014-Jul-25 19:32N 41°03' W 072°19'0 0.0
2014-Jul-25 18:23N 41°03' W 072°19'0 0.0
2014-Jul-25 17:32N 41°03' W 072°19'3 3.0
2014-Jul-25 16:32N 41°00' W 072°18'0 0.0
2014-Jul-25 15:32N 41°00' W 072°18'0 0.0
2014-Jul-25 14:29N 41°00' W 072°18'0 0.0
2014-Jul-25 13:32N 41°00' W 072°18'0 0.0
2014-Jul-25 12:32N 41°00' W 072°18'0 0.0
2014-Jul-25 11:32N 41°00' W 072°18'0 0.0
2014-Jul-25 10:32N 41°00' W 072°18'0 0.0
2014-Jul-25 09:32N 41°00' W 072°18'0 0.0
2014-Jul-25 08:32N 41°00' W 072°18'0 0.0
2014-Jul-25 07:29N 41°00' W 072°18'0 0.0
2014-Jul-25 06:32N 41°00' W 072°18'0 0.0
2014-Jul-25 05:33N 41°00' W 072°18'0 0.0
2014-Jul-25 04:29N 41°00' W 072°18'0 0.0
2014-Jul-25 03:32N 41°00' W 072°18'0 0.0
2014-Jul-25 02:32N 41°00' W 072°18'0 0.0
2014-Jul-25 01:32N 41°00' W 072°18'0 0.0
2014-Jul-25 00:29N 41°00' W 072°18'0 0.0
2014-Jul-24 23:32N 41°00' W 072°18'0 0.0
2014-Jul-24 22:32N 41°00' W 072°18'0 0.0
2014-Jul-24 21:32N 41°00' W 072°18'0 0.0
2014-Jul-24 20:32N 41°00' W 072°18'0 0.0
2014-Jul-24 19:32N 41°00' W 072°18'0 0.0
2014-Jul-24 18:32N 41°00' W 072°18'0 0.0
2014-Jul-24 17:32N 41°00' W 072°18'0 0.0
2014-Jul-24 16:32N 41°00' W 072°18'0 0.0
2014-Jul-24 15:32N 41°00' W 072°18'0 0.0
2014-Jul-24 14:32N 41°00' W 072°18'0 0.0
2014-Jul-24 13:32N 41°00' W 072°18'0 0.0
2014-Jul-24 12:32N 41°00' W 072°18'0 0.0
2014-Jul-24 11:29N 41°00' W 072°18'0 0.0
2014-Jul-24 10:32N 41°00' W 072°18'0 0.0
2014-Jul-24 09:26N 41°00' W 072°18'0 0.0
2014-Jul-24 08:32N 41°00' W 072°18'0 0.0
2014-Jul-24 07:23N 41°00' W 072°18'0 0.0
2014-Jul-24 06:32N 41°00' W 072°18'0 0.0
2014-Jul-24 05:32N 41°00' W 072°18'0 0.0
2014-Jul-24 04:32N 41°00' W 072°18'0 0.0
2014-Jul-24 03:32N 41°00' W 072°18'0 0.0
2014-Jul-24 02:32N 41°00' W 072°18'0 0.0
2014-Jul-24 01:32N 41°00' W 072°18'0 0.0
2014-Jul-24 00:32N 41°00' W 072°18'0 0.0
2014-Jul-23 23:32N 41°00' W 072°18'0 0.0
2014-Jul-23 22:26N 41°00' W 072°18'0 0.0
2014-Jul-23 21:29N 41°00' W 072°18'0 0.0
2014-Jul-23 20:29N 41°00' W 072°18'0 0.0
2014-Jul-23 19:29N 41°00' W 072°18'0 0.0
2014-Jul-23 18:32N 41°00' W 072°18'0 0.0
2014-Jul-23 17:32N 41°00' W 072°18'0 0.0
2014-Jul-23 16:32N 41°00' W 072°18'0 0.0
2014-Jul-23 15:29N 41°00' W 072°18'0 0.0
2014-Jul-23 14:32N 41°00' W 072°18'0 0.0
2014-Jul-23 13:32N 41°00' W 072°18'0 0.0
2014-Jul-23 12:32N 41°00' W 072°18'0 0.0
2014-Jul-23 11:29N 41°00' W 072°18'0 0.0
2014-Jul-23 10:32N 41°00' W 072°18'0 0.0
2014-Jul-23 09:32N 41°00' W 072°18'0 0.0
2014-Jul-23 08:32N 41°00' W 072°18'0 0.0
2014-Jul-23 07:29N 41°00' W 072°18'0 0.0
2014-Jul-23 06:32N 41°00' W 072°18'0 0.0
2014-Jul-23 05:32N 41°00' W 072°18'0 0.0
2014-Jul-23 04:32N 41°00' W 072°18'0 0.0
2014-Jul-23 03:29N 41°00' W 072°18'0 0.0
2014-Jul-23 02:32N 41°00' W 072°18'0 0.0
2014-Jul-23 01:32N 41°00' W 072°18'0 0.0
2014-Jul-23 00:32N 41°00' W 072°18'0 0.0
2014-Jul-22 23:32N 41°00' W 072°18'0 0.0
2014-Jul-22 22:29N 41°00' W 072°18'0 0.0
2014-Jul-22 21:32N 41°00' W 072°18'3 2.7
2014-Jul-22 20:33N 41°02' W 072°20'2 2.0
2014-Jul-22 19:33N 41°01' W 072°22'0 0.0
2014-Jul-22 18:33N 41°01' W 072°22'0 0.0
2014-Jul-22 17:30N 41°01' W 072°22'0 0.0
2014-Jul-22 16:31N 41°01' W 072°22'3 2.9
2014-Jul-22 15:25N 41°00' W 072°18'0 0.0
2014-Jul-22 14:31N 41°00' W 072°18'0 0.0
2014-Jul-22 13:31N 41°00' W 072°18'0 0.0
2014-Jul-22 12:31N 41°00' W 072°18'0 0.0
2014-Jul-22 11:31N 41°00' W 072°18'0 0.0
2014-Jul-22 10:31N 41°00' W 072°18'0 0.0
2014-Jul-22 09:31N 41°00' W 072°18'0 0.0
2014-Jul-22 08:31N 41°00' W 072°18'0 0.0
2014-Jul-22 07:31N 41°00' W 072°18'0 0.0
2014-Jul-22 06:31N 41°00' W 072°18'0 0.0
2014-Jul-22 05:31N 41°00' W 072°18'0 0.0
2014-Jul-22 04:31N 41°00' W 072°18'0 0.0
2014-Jul-22 03:31N 41°00' W 072°18'0 0.0
2014-Jul-22 02:31N 41°00' W 072°18'0 0.0
2014-Jul-22 01:28N 41°00' W 072°18'0 0.0
2014-Jul-22 00:31N 41°00' W 072°18'0 0.0
2014-Jul-21 23:31N 41°00' W 072°18'0 0.0
2014-Jul-21 22:28N 41°00' W 072°18'0 0.0
2014-Jul-21 21:31N 41°00' W 072°18'0 0.0
2014-Jul-21 20:31N 41°00' W 072°18'0 0.0
2014-Jul-21 20:13N 41°00' W 072°18'3 4.5
2014-Jul-21 19:33N 41°03' W 072°19'0 0.0
2014-Jul-21 18:23N 41°03' W 072°19'0 0.0
2014-Jul-21 17:29N 41°03' W 072°19'0 0.0
2014-Jul-21 16:23N 41°03' W 072°19'3 3.6
2014-Jul-21 15:33N 41°00' W 072°18'0 0.0
2014-Jul-21 14:33N 41°00' W 072°18'  

Dump ship's entire track history